createdAt,value
2023-01-21T00:00:08.188Z,112.34
2023-01-21T00:01:08.139Z,113.79
2023-01-21T00:02:08.159Z,113.18
2023-01-21T00:03:08.182Z,113.71
2023-01-21T00:04:08.104Z,113.25
2023-01-21T00:05:08.113Z,114.65
2023-01-21T00:06:08.125Z,115.12
2023-01-21T00:07:08.103Z,114.88
2023-01-21T00:08:08.052Z,115.12
2023-01-21T00:09:08.057Z,115.20
2023-01-21T00:10:08.039Z,115.12
2023-01-21T00:11:08.028Z,116.08
2023-01-21T00:12:08.019Z,115.92
2023-01-21T00:13:08.009Z,115.60
2023-01-21T00:14:07.986Z,115.84
2023-01-21T00:15:07.988Z,116.00
2023-01-21T00:16:08.008Z,115.84
2023-01-21T00:17:07.962Z,115.44
2023-01-21T00:18:07.940Z,114.57
2023-01-21T00:19:07.910Z,114.80
2023-01-21T00:20:07.918Z,114.88
2023-01-21T00:21:07.911Z,114.57
2023-01-21T00:22:07.878Z,113.94
2023-01-21T00:23:07.877Z,113.18
2023-01-21T00:24:07.862Z,113.18
2023-01-21T00:25:07.849Z,112.64
2023-01-21T00:26:07.831Z,113.02
2023-01-21T00:27:07.826Z,112.34
2023-01-21T00:28:07.821Z,112.72
2023-01-21T00:29:07.812Z,112.11
2023-01-21T00:30:07.765Z,111.96
2023-01-21T00:31:07.924Z,111.82
2023-01-21T00:32:07.741Z,111.15
2023-01-21T00:33:07.740Z,110.63
2023-01-21T00:34:07.720Z,110.85
2023-01-21T00:35:07.728Z,110.78
2023-01-21T00:36:07.691Z,109.98
2023-01-21T00:37:07.689Z,109.91
2023-01-21T00:38:07.685Z,110.93
2023-01-21T00:39:07.695Z,110.71
2023-01-21T00:40:07.657Z,110.05
2023-01-21T00:41:07.682Z,111.22
2023-01-21T00:42:07.623Z,111.29
2023-01-21T00:43:07.638Z,110.49
2023-01-21T00:44:07.603Z,110.93
2023-01-21T00:45:07.602Z,111.07
2023-01-21T00:46:07.621Z,110.78
2023-01-21T00:47:07.584Z,111.44
2023-01-21T00:48:07.540Z,111.07
2023-01-21T00:49:07.527Z,112.42
2023-01-21T00:50:07.539Z,112.11
2023-01-21T00:51:07.526Z,112.49
2023-01-21T00:52:07.496Z,113.02
2023-01-21T00:53:07.489Z,114.10
2023-01-21T00:54:07.460Z,113.71
2023-01-21T00:55:07.450Z,114.41
2023-01-21T00:56:07.468Z,114.73
2023-01-21T00:57:07.445Z,115.44
2023-01-21T00:58:07.406Z,115.76
2023-01-21T00:59:07.439Z,116.00
2023-01-21T01:00:07.408Z,116.72
2023-01-21T01:01:07.620Z,115.84
2023-01-21T01:02:07.375Z,116.89
2023-01-21T01:03:07.347Z,116.81
2023-01-21T01:04:07.368Z,116.72
2023-01-21T01:05:07.344Z,117.13
2023-01-21T01:06:07.334Z,116.72
2023-01-21T01:07:07.331Z,117.21
2023-01-21T01:08:07.307Z,117.05
2023-01-21T01:09:07.287Z,117.96
2023-01-21T01:10:07.254Z,118.12
2023-01-21T01:11:07.250Z,117.87
2023-01-21T01:12:07.254Z,117.54
2023-01-21T01:13:07.219Z,117.71
2023-01-21T01:14:07.209Z,118.04
2023-01-21T01:15:07.216Z,117.71
2023-01-21T01:16:07.261Z,116.72
2023-01-21T01:17:07.171Z,117.63
2023-01-21T01:18:07.149Z,116.97
2023-01-21T01:19:07.176Z,117.21
2023-01-21T01:20:07.155Z,117.30
2023-01-21T01:21:07.128Z,117.21
2023-01-21T01:22:07.100Z,115.92
2023-01-21T01:23:07.120Z,116.81
2023-01-21T01:24:07.141Z,117.46
2023-01-21T01:25:07.113Z,116.72
2023-01-21T01:26:07.185Z,116.97
2023-01-21T01:27:07.112Z,117.30
2023-01-21T01:28:07.181Z,116.16
2023-01-21T01:29:07.041Z,116.89
2023-01-21T01:30:07.031Z,116.89
2023-01-21T01:31:07.180Z,116.32
2023-01-21T01:32:07.020Z,116.56
2023-01-21T01:33:06.985Z,117.30
2023-01-21T01:34:07.023Z,116.72
2023-01-21T01:35:06.984Z,116.64
2023-01-21T01:36:06.973Z,116.89
2023-01-21T01:37:06.927Z,117.30
2023-01-21T01:38:06.901Z,116.16
2023-01-21T01:39:06.916Z,116.32
2023-01-21T01:40:06.914Z,115.84
2023-01-21T01:41:06.862Z,115.84
2023-01-21T01:42:06.869Z,115.92
2023-01-21T01:43:06.897Z,115.04
2023-01-21T01:44:06.835Z,115.60
2023-01-21T01:45:06.810Z,115.76
2023-01-21T01:46:06.833Z,116.08
2023-01-21T01:47:06.807Z,115.68
2023-01-21T01:48:06.817Z,115.20
2023-01-21T01:49:06.784Z,115.76
2023-01-21T01:50:06.764Z,115.44
2023-01-21T01:51:06.827Z,116.16
2023-01-21T01:52:06.737Z,116.24
2023-01-21T01:53:06.729Z,116.16
2023-01-21T01:54:06.722Z,117.05
2023-01-21T01:55:06.715Z,116.89
2023-01-21T01:56:06.713Z,117.63
2023-01-21T01:57:06.695Z,116.48
2023-01-21T01:58:06.649Z,117.46
2023-01-21T01:59:06.637Z,116.97
2023-01-21T02:00:06.646Z,117.54
2023-01-21T02:01:06.608Z,118.37
2023-01-21T02:02:06.603Z,118.29
2023-01-21T02:03:06.629Z,118.37
2023-01-21T02:04:06.583Z,118.54
2023-01-21T02:05:06.579Z,118.63
2023-01-21T02:06:06.550Z,119.13
2023-01-21T02:07:06.551Z,119.99
2023-01-21T02:08:06.522Z,120.16
2023-01-21T02:09:06.502Z,120.59
2023-01-21T02:10:06.507Z,121.20
2023-01-21T02:11:06.502Z,121.20
2023-01-21T02:12:06.474Z,121.03
2023-01-21T02:13:06.453Z,121.29
2023-01-21T02:14:06.459Z,121.29
2023-01-21T02:15:06.463Z,120.50
2023-01-21T02:16:06.539Z,120.16
2023-01-21T02:17:06.428Z,120.33
2023-01-21T02:18:06.425Z,120.07
2023-01-21T02:19:06.393Z,120.50
2023-01-21T02:20:06.424Z,119.90
2023-01-21T02:21:06.363Z,119.90
2023-01-21T02:22:06.362Z,119.39
2023-01-21T02:23:06.331Z,119.81
2023-01-21T02:24:06.333Z,119.99
2023-01-21T02:25:06.315Z,120.24
2023-01-21T02:26:06.316Z,120.33
2023-01-21T02:27:06.295Z,121.03
2023-01-21T02:28:06.282Z,121.20
2023-01-21T02:29:06.253Z,121.20
2023-01-21T02:30:06.260Z,121.20
2023-01-21T02:31:06.315Z,121.20
2023-01-21T02:32:06.220Z,121.55
2023-01-21T02:33:06.197Z,121.20
2023-01-21T02:34:06.196Z,122.80
2023-01-21T02:35:06.201Z,124.35
2023-01-21T02:36:06.199Z,125.00
2023-01-21T02:37:06.180Z,125.28
2023-01-21T02:38:06.164Z,125.94
2023-01-21T02:39:06.136Z,126.61
2023-01-21T02:40:06.123Z,126.61
2023-01-21T02:41:06.099Z,127.96
2023-01-21T02:42:06.102Z,128.65
2023-01-21T02:43:06.095Z,128.85
2023-01-21T02:44:06.067Z,128.06
2023-01-21T02:45:06.045Z,129.04
2023-01-21T02:46:06.036Z,130.25
2023-01-21T02:47:06.028Z,131.17
2023-01-21T02:48:06.227Z,131.99
2023-01-21T02:49:06.020Z,131.37
2023-01-21T02:50:06.024Z,133.36
2023-01-21T02:51:06.022Z,134.86
2023-01-21T02:52:05.996Z,135.63
2023-01-21T02:53:05.950Z,136.18
2023-01-21T02:54:05.955Z,137.07
2023-01-21T02:55:05.931Z,136.62
2023-01-21T02:56:05.933Z,137.63
2023-01-21T02:57:05.941Z,138.20
2023-01-21T02:58:05.896Z,137.97
2023-01-21T02:59:05.871Z,138.66
2023-01-21T03:00:05.879Z,139.00
2023-01-21T03:01:05.935Z,139.35
2023-01-21T03:02:05.880Z,140.05
2023-01-21T03:03:05.845Z,140.17
2023-01-21T03:04:05.807Z,141.59
2023-01-21T03:05:05.811Z,140.52
2023-01-21T03:06:05.801Z,142.55
2023-01-21T03:07:05.760Z,142.07
2023-01-21T03:08:05.797Z,142.07
2023-01-21T03:09:05.756Z,143.28
2023-01-21T03:10:05.729Z,143.65
2023-01-21T03:11:05.726Z,142.55
2023-01-21T03:12:05.743Z,142.92
2023-01-21T03:13:05.696Z,142.19
2023-01-21T03:14:05.687Z,142.67
2023-01-21T03:15:05.670Z,143.04
2023-01-21T03:16:05.735Z,142.07
2023-01-21T03:17:05.634Z,142.07
2023-01-21T03:18:05.629Z,141.23
2023-01-21T03:19:05.646Z,141.35
2023-01-21T03:20:05.702Z,140.40
2023-01-21T03:21:05.582Z,140.05
2023-01-21T03:22:05.567Z,139.00
2023-01-21T03:23:05.551Z,139.58
2023-01-21T03:24:05.592Z,139.70
2023-01-21T03:25:05.557Z,138.09
2023-01-21T03:26:05.518Z,137.29
2023-01-21T03:27:05.546Z,136.73
2023-01-21T03:28:05.551Z,135.85
2023-01-21T03:29:05.477Z,135.96
2023-01-21T03:30:05.478Z,135.74
2023-01-21T03:31:05.640Z,135.30
2023-01-21T03:32:05.451Z,134.54
2023-01-21T03:33:05.455Z,134.32
2023-01-21T03:34:05.421Z,134.21
2023-01-21T03:35:05.420Z,133.68
2023-01-21T03:36:05.408Z,134.00
2023-01-21T03:37:05.404Z,133.68
2023-01-21T03:38:05.422Z,133.68
2023-01-21T03:39:05.385Z,134.54
2023-01-21T03:40:05.344Z,134.00
2023-01-21T03:41:05.349Z,134.54
2023-01-21T03:42:05.352Z,136.40
2023-01-21T03:43:05.340Z,136.40
2023-01-21T03:44:05.319Z,136.51
2023-01-21T03:45:05.294Z,136.29
2023-01-21T03:46:05.354Z,136.18
2023-01-21T03:47:05.264Z,136.62
2023-01-21T03:48:05.279Z,136.18
2023-01-21T03:49:05.240Z,135.74
2023-01-21T03:50:05.256Z,135.63
2023-01-21T03:51:05.273Z,136.18
2023-01-21T03:52:05.215Z,136.40
2023-01-21T03:53:05.209Z,137.07
2023-01-21T03:54:05.242Z,137.29
2023-01-21T03:55:05.183Z,137.86
2023-01-21T03:56:05.161Z,137.63
2023-01-21T03:57:05.122Z,137.52
2023-01-21T03:58:05.135Z,136.85
2023-01-21T03:59:05.109Z,137.63
2023-01-21T04:00:05.112Z,138.09
2023-01-21T04:01:05.160Z,138.09
2023-01-21T04:02:05.097Z,137.97
2023-01-21T04:03:05.069Z,136.85
2023-01-21T04:04:05.040Z,137.52
2023-01-21T04:05:05.032Z,137.86
2023-01-21T04:06:05.060Z,137.29
2023-01-21T04:07:05.026Z,137.29
2023-01-21T04:08:05.006Z,137.07
2023-01-21T04:09:05.000Z,137.52
2023-01-21T04:10:05.007Z,137.41
2023-01-21T04:11:04.950Z,137.75
2023-01-21T04:12:04.951Z,137.97
2023-01-21T04:13:04.950Z,138.89
2023-01-21T04:14:04.913Z,139.12
2023-01-21T04:15:05.603Z,140.40
2023-01-21T04:16:04.982Z,141.11
2023-01-21T04:17:04.919Z,140.87
2023-01-21T04:18:04.892Z,142.19
2023-01-21T04:19:04.889Z,142.67
2023-01-21T04:20:04.860Z,143.04
2023-01-21T04:21:04.843Z,143.90
2023-01-21T04:22:04.816Z,144.02
2023-01-21T04:23:04.805Z,144.52
2023-01-21T04:24:04.812Z,144.52
2023-01-21T04:25:04.818Z,145.27
2023-01-21T04:26:04.776Z,146.54
2023-01-21T04:27:04.756Z,146.80
2023-01-21T04:28:04.779Z,147.06
2023-01-21T04:29:04.732Z,147.71
2023-01-21T04:30:04.707Z,148.49
2023-01-21T04:31:04.735Z,149.15
2023-01-21T04:32:04.721Z,148.89
2023-01-21T04:33:04.696Z,148.49
2023-01-21T04:34:04.683Z,149.69
2023-01-21T04:35:04.639Z,149.29
2023-01-21T04:36:04.664Z,150.36
2023-01-21T04:37:04.654Z,150.76
2023-01-21T04:38:04.621Z,151.04
2023-01-21T04:39:04.602Z,152.13
2023-01-21T04:40:04.659Z,153.25
2023-01-21T04:41:04.575Z,153.67
2023-01-21T04:42:04.601Z,154.52
2023-01-21T04:43:04.553Z,155.96
2023-01-21T04:44:04.534Z,156.25
2023-01-21T04:45:04.533Z,157.13
2023-01-21T04:46:04.614Z,158.17
2023-01-21T04:47:04.527Z,159.52
2023-01-21T04:48:04.501Z,161.06
2023-01-21T04:49:04.490Z,160.75
2023-01-21T04:50:04.464Z,162.46
2023-01-21T04:51:04.456Z,164.21
2023-01-21T04:52:04.448Z,163.26
2023-01-21T04:53:04.424Z,164.21
2023-01-21T04:54:04.427Z,163.73
2023-01-21T04:55:04.398Z,164.21
2023-01-21T04:56:04.379Z,164.54
2023-01-21T04:57:04.361Z,164.86
2023-01-21T04:58:04.369Z,165.02
2023-01-21T04:59:04.356Z,166.01
2023-01-21T05:00:04.355Z,166.01
2023-01-21T05:01:04.335Z,166.17
2023-01-21T05:02:04.316Z,165.19
2023-01-21T05:03:04.315Z,165.35
2023-01-21T05:04:04.270Z,166.34
2023-01-21T05:05:04.259Z,164.86
2023-01-21T05:06:04.272Z,164.21
2023-01-21T05:07:04.229Z,165.35
2023-01-21T05:08:04.222Z,165.84
2023-01-21T05:09:04.239Z,164.54
2023-01-21T05:10:04.203Z,164.38
2023-01-21T05:11:04.176Z,164.38
2023-01-21T05:12:04.180Z,163.73
2023-01-21T05:13:04.157Z,164.05
2023-01-21T05:14:04.151Z,164.54
2023-01-21T05:15:04.138Z,164.21
2023-01-21T05:16:04.224Z,164.05
2023-01-21T05:17:04.189Z,165.51
2023-01-21T05:18:04.096Z,165.19
2023-01-21T05:19:04.089Z,166.34
2023-01-21T05:20:04.080Z,166.34
2023-01-21T05:21:04.083Z,166.17
2023-01-21T05:22:04.084Z,165.02
2023-01-21T05:23:04.029Z,165.19
2023-01-21T05:24:04.032Z,165.02
2023-01-21T05:25:04.019Z,164.70
2023-01-21T05:26:04.006Z,165.19
2023-01-21T05:27:04.000Z,164.54
2023-01-21T05:28:03.984Z,164.38
2023-01-21T05:29:03.972Z,163.89
2023-01-21T05:30:03.964Z,163.41
2023-01-21T05:31:04.110Z,163.73
2023-01-21T05:32:03.931Z,163.57
2023-01-21T05:33:03.935Z,164.05
2023-01-21T05:34:03.922Z,163.10
2023-01-21T05:35:03.873Z,162.62
2023-01-21T05:36:03.881Z,164.38
2023-01-21T05:37:03.866Z,163.73
2023-01-21T05:38:03.856Z,163.26
2023-01-21T05:39:03.844Z,163.41
2023-01-21T05:40:03.859Z,161.68
2023-01-21T05:41:03.829Z,162.15
2023-01-21T05:42:03.814Z,161.68
2023-01-21T05:43:03.771Z,162.31
2023-01-21T05:44:03.794Z,161.37
2023-01-21T05:45:03.769Z,162.78
2023-01-21T05:46:03.912Z,161.84
2023-01-21T05:47:03.718Z,162.15
2023-01-21T05:48:03.718Z,161.52
2023-01-21T05:49:03.722Z,160.75
2023-01-21T05:50:03.688Z,160.44
2023-01-21T05:51:03.735Z,160.75
2023-01-21T05:52:03.662Z,161.99
2023-01-21T05:53:03.639Z,161.37
2023-01-21T05:54:03.627Z,161.06
2023-01-21T05:55:03.616Z,161.21
2023-01-21T05:56:03.633Z,161.37
2023-01-21T05:57:03.619Z,161.84
2023-01-21T05:58:03.598Z,161.52
2023-01-21T05:59:03.567Z,162.94
2023-01-21T06:00:03.569Z,163.41
2023-01-21T06:01:03.561Z,161.52
2023-01-21T06:02:03.561Z,161.68
2023-01-21T06:03:03.535Z,162.15
2023-01-21T06:04:03.502Z,161.52
2023-01-21T06:05:03.516Z,160.59
2023-01-21T06:06:03.494Z,159.68
2023-01-21T06:07:03.524Z,159.37
2023-01-21T06:08:03.483Z,158.32
2023-01-21T06:09:03.447Z,158.92
2023-01-21T06:10:03.423Z,157.87
2023-01-21T06:11:03.425Z,157.57
2023-01-21T06:12:03.425Z,158.02
2023-01-21T06:13:03.404Z,156.25
2023-01-21T06:14:03.377Z,156.69
2023-01-21T06:15:03.382Z,156.40
2023-01-21T06:16:03.470Z,155.67
2023-01-21T06:17:03.373Z,155.96
2023-01-21T06:18:03.328Z,156.25
2023-01-21T06:19:03.322Z,156.40
2023-01-21T06:20:03.302Z,154.80
2023-01-21T06:21:03.324Z,155.09
2023-01-21T06:22:03.307Z,155.96
2023-01-21T06:23:03.292Z,155.38
2023-01-21T06:24:03.248Z,156.25
2023-01-21T06:25:03.266Z,157.28
2023-01-21T06:26:03.266Z,156.69
2023-01-21T06:27:03.235Z,156.69
2023-01-21T06:28:03.213Z,156.69
2023-01-21T06:29:03.213Z,156.40
2023-01-21T06:30:03.207Z,156.69
2023-01-21T06:31:03.296Z,157.57
2023-01-21T06:32:03.456Z,156.84
2023-01-21T06:33:03.172Z,157.13
2023-01-21T06:34:03.127Z,157.28
2023-01-21T06:35:03.111Z,158.92
2023-01-21T06:36:03.103Z,159.98
2023-01-21T06:37:03.102Z,161.06
2023-01-21T06:38:03.075Z,160.75
2023-01-21T06:39:03.088Z,162.15
2023-01-21T06:40:03.047Z,163.26
2023-01-21T06:41:03.045Z,163.10
2023-01-21T06:42:03.032Z,164.05
2023-01-21T06:43:03.045Z,164.21
2023-01-21T06:44:03.017Z,164.86
2023-01-21T06:45:03.004Z,164.38
2023-01-21T06:46:03.081Z,163.57
2023-01-21T06:47:03.023Z,163.10
2023-01-21T06:48:02.956Z,162.62
2023-01-21T06:49:02.959Z,162.62
2023-01-21T06:50:02.921Z,162.31
2023-01-21T06:51:02.936Z,161.21
2023-01-21T06:52:02.922Z,159.68
2023-01-21T06:53:02.913Z,158.62
2023-01-21T06:54:02.899Z,158.17
2023-01-21T06:55:02.870Z,157.42
2023-01-21T06:56:02.843Z,157.42
2023-01-21T06:57:02.840Z,158.02
2023-01-21T06:58:02.856Z,156.69
2023-01-21T06:59:02.803Z,155.67
2023-01-21T07:00:02.813Z,156.40
2023-01-21T07:01:02.824Z,155.81
2023-01-21T07:02:02.765Z,156.69
2023-01-21T07:03:02.862Z,157.28
2023-01-21T07:04:02.767Z,156.10
2023-01-21T07:05:02.865Z,156.84
2023-01-21T07:06:02.727Z,156.98
2023-01-21T07:07:02.705Z,156.84
2023-01-21T07:08:02.723Z,156.98
2023-01-21T07:09:02.699Z,158.02
2023-01-21T07:10:02.663Z,158.17
2023-01-21T07:11:02.674Z,158.17
2023-01-21T07:12:02.654Z,157.87
2023-01-21T07:13:02.662Z,158.47
2023-01-21T07:14:02.634Z,158.47
2023-01-21T07:15:02.617Z,159.22
2023-01-21T07:16:04.604Z,160.13
2023-01-21T07:17:02.601Z,160.44
2023-01-21T07:18:02.593Z,160.13
2023-01-21T07:19:02.586Z,160.75
2023-01-21T07:20:02.602Z,162.62
2023-01-21T07:21:02.601Z,162.94
2023-01-21T07:22:02.531Z,163.57
2023-01-21T07:23:02.526Z,163.89
2023-01-21T07:24:02.492Z,165.68
2023-01-21T07:25:02.480Z,166.17
2023-01-21T07:26:02.465Z,167.16
2023-01-21T07:27:02.474Z,167.00
2023-01-21T07:28:02.482Z,168.00
2023-01-21T07:29:02.492Z,168.68
2023-01-21T07:30:02.454Z,167.67
2023-01-21T07:31:02.518Z,168.85
2023-01-21T07:32:02.421Z,169.53
2023-01-21T07:33:02.380Z,170.05
2023-01-21T07:34:02.401Z,171.09
2023-01-21T07:35:02.401Z,171.27
2023-01-21T07:36:02.374Z,171.97
2023-01-21T07:37:02.344Z,172.15
2023-01-21T07:38:02.344Z,171.97
2023-01-21T07:39:02.316Z,173.40
2023-01-21T07:40:02.342Z,173.76
2023-01-21T07:41:02.315Z,174.30
2023-01-21T07:42:02.287Z,174.84
2023-01-21T07:43:02.291Z,175.95
2023-01-21T07:44:02.285Z,175.58
2023-01-21T07:45:02.260Z,173.93
2023-01-21T07:46:02.238Z,173.40
2023-01-21T07:47:02.210Z,173.76
2023-01-21T07:48:02.216Z,174.66
2023-01-21T07:49:02.197Z,176.32
2023-01-21T07:50:02.168Z,175.58
2023-01-21T07:51:02.196Z,176.87
2023-01-21T07:52:02.150Z,178.00
2023-01-21T07:53:02.140Z,176.69
2023-01-21T07:54:02.141Z,177.62
2023-01-21T07:55:02.117Z,177.62
2023-01-21T07:56:02.111Z,177.44
2023-01-21T07:57:02.092Z,177.06
2023-01-21T07:58:02.086Z,176.32
2023-01-21T07:59:02.084Z,177.44
2023-01-21T08:00:02.056Z,177.06
2023-01-21T08:01:02.033Z,177.81
2023-01-21T08:02:02.088Z,179.14
2023-01-21T08:03:02.035Z,180.11
2023-01-21T08:04:01.995Z,181.28
2023-01-21T08:05:02.001Z,181.47
2023-01-21T08:06:01.991Z,181.67
2023-01-21T08:07:01.998Z,181.87
2023-01-21T08:08:01.958Z,182.46
2023-01-21T08:09:01.931Z,184.27
2023-01-21T08:10:01.938Z,186.11
2023-01-21T08:11:01.901Z,185.59
2023-01-21T08:12:01.906Z,188.35
2023-01-21T08:13:01.960Z,190.97
2023-01-21T08:14:01.879Z,193.55
2023-01-21T08:15:01.856Z,195.27
2023-01-21T08:16:01.883Z,198.09
2023-01-21T08:17:01.884Z,199.17
2023-01-21T08:18:01.855Z,198.81
2023-01-21T08:19:01.824Z,201.24
2023-01-21T08:20:01.849Z,201.73
2023-01-21T08:21:01.806Z,202.35
2023-01-21T08:22:01.790Z,203.35
2023-01-21T08:23:01.816Z,204.10
2023-01-21T08:24:01.760Z,206.02
2023-01-21T08:25:01.776Z,205.63
2023-01-21T08:26:01.759Z,207.58
2023-01-21T08:27:01.837Z,208.50
2023-01-21T08:28:01.693Z,210.23
2023-01-21T08:29:01.701Z,213.09
2023-01-21T08:30:01.723Z,216.87
2023-01-21T08:31:01.716Z,218.89
2023-01-21T08:32:01.685Z,220.21
2023-01-21T08:33:01.680Z,222.29
2023-01-21T08:34:01.640Z,226.26
2023-01-21T08:35:01.632Z,228.46
2023-01-21T08:36:01.623Z,230.38
2023-01-21T08:37:01.601Z,234.98
2023-01-21T08:38:01.579Z,234.81
2023-01-21T08:39:01.576Z,234.31
2023-01-21T08:40:01.566Z,237.01
2023-01-21T08:41:01.593Z,239.59
2023-01-21T08:42:01.644Z,239.07
2023-01-21T08:43:01.558Z,240.82
2023-01-21T08:44:01.556Z,241.35
2023-01-21T08:45:01.540Z,239.42
2023-01-21T08:46:01.663Z,241.35
2023-01-21T08:47:01.482Z,244.39
2023-01-21T08:48:01.437Z,246.96
2023-01-21T08:49:01.429Z,247.89
2023-01-21T08:50:01.416Z,250.53
2023-01-21T08:51:01.474Z,250.72
2023-01-21T08:52:01.463Z,252.26
2023-01-21T08:53:01.429Z,253.03
2023-01-21T08:54:01.405Z,255.98
2023-01-21T08:55:01.366Z,257.18
2023-01-21T08:56:01.376Z,260.23
2023-01-21T08:57:01.395Z,262.09
2023-01-21T08:58:01.316Z,262.72
2023-01-21T08:59:01.331Z,264.19
2023-01-21T09:00:01.308Z,267.20
2023-01-21T09:01:01.292Z,268.72
2023-01-21T09:02:01.440Z,270.93
2023-01-21T09:03:01.277Z,273.63
2023-01-21T09:04:01.273Z,276.16
2023-01-21T09:05:01.248Z,280.63
2023-01-21T09:06:01.219Z,281.35
2023-01-21T09:07:01.239Z,283.53
2023-01-21T09:08:01.196Z,282.55
2023-01-21T09:09:01.227Z,285.00
2023-01-21T09:10:01.164Z,283.77
2023-01-21T09:11:01.171Z,283.28
2023-01-21T09:12:01.168Z,286.98
2023-01-21T09:13:01.141Z,289.25
2023-01-21T09:14:01.129Z,287.23
2023-01-21T09:15:01.129Z,289.51
2023-01-21T09:16:01.087Z,292.08
2023-01-21T09:17:01.121Z,294.69
2023-01-21T09:18:01.081Z,295.75
2023-01-21T09:19:01.056Z,297.89
2023-01-21T09:20:01.064Z,298.43
2023-01-21T09:21:01.043Z,297.08
2023-01-21T09:22:01.009Z,296.55
2023-01-21T09:23:01.082Z,294.42
2023-01-21T09:24:00.975Z,293.90
2023-01-21T09:25:00.998Z,294.42
2023-01-21T09:26:01.035Z,296.81
2023-01-21T09:27:00.984Z,297.62
2023-01-21T09:28:00.963Z,298.97
2023-01-21T09:29:00.990Z,303.10
2023-01-21T09:30:00.943Z,304.22
2023-01-21T09:31:00.968Z,305.91
2023-01-21T09:32:01.013Z,307.63
2023-01-21T09:33:00.881Z,309.65
2023-01-21T09:34:00.874Z,312.29
2023-01-21T09:35:00.866Z,314.38
2023-01-21T09:36:00.862Z,315.58
2023-01-21T09:37:00.852Z,319.26
2023-01-21T09:38:00.798Z,319.88
2023-01-21T09:39:00.832Z,323.01
2023-01-21T09:40:00.832Z,324.61
2023-01-21T09:41:00.805Z,327.18
2023-01-21T09:42:00.796Z,329.48
2023-01-21T09:43:00.747Z,331.13
2023-01-21T09:44:00.830Z,331.80
2023-01-21T09:45:00.719Z,336.20
2023-01-21T09:46:03.016Z,337.58
2023-01-21T09:47:00.726Z,343.21
2023-01-21T09:48:00.696Z,340.02
2023-01-21T09:49:00.666Z,340.72
2023-01-21T09:50:00.649Z,344.65
2023-01-21T09:51:00.684Z,344.65
2023-01-21T09:52:00.626Z,346.82
2023-01-21T09:53:00.613Z,350.14
2023-01-21T09:54:00.587Z,349.40
2023-01-21T09:55:00.573Z,349.03
2023-01-21T09:56:00.568Z,349.03
2023-01-21T09:57:00.557Z,353.90
2023-01-21T09:58:00.628Z,355.43
2023-01-21T09:59:00.550Z,358.53
2023-01-21T10:00:00.506Z,360.89
2023-01-21T10:01:00.541Z,360.49
2023-01-21T10:02:00.479Z,360.10
2023-01-21T10:03:00.492Z,365.69
2023-01-21T10:04:00.475Z,371.47
2023-01-21T10:05:00.471Z,374.00
2023-01-21T10:06:00.428Z,374.85
2023-01-21T10:07:00.444Z,379.44
2023-01-21T10:08:00.423Z,379.87
2023-01-21T10:09:00.415Z,385.11
2023-01-21T10:10:00.411Z,389.14
2023-01-21T10:11:00.361Z,391.88
2023-01-21T10:12:00.358Z,393.72
2023-01-21T10:13:00.335Z,399.12
2023-01-21T10:14:00.388Z,402.97
2023-01-21T10:15:00.321Z,402.24
2023-01-21T10:16:00.341Z,409.63
2023-01-21T10:17:00.357Z,416.77
2023-01-21T10:18:00.294Z,421.76
2023-01-21T10:19:00.295Z,423.09
2023-01-21T10:20:00.267Z,427.41
2023-01-21T10:21:00.271Z,428.51
2023-01-21T10:22:00.230Z,429.06
2023-01-21T10:23:00.229Z,434.35
2023-01-21T10:24:00.226Z,436.33
2023-01-21T10:25:00.197Z,440.06
2023-01-21T10:26:00.194Z,445.63
2023-01-21T10:27:00.183Z,448.31
2023-01-21T10:28:00.149Z,454.09
2023-01-21T10:29:00.136Z,459.07
2023-01-21T10:30:00.183Z,462.56
2023-01-21T10:31:00.203Z,463.20
2023-01-21T10:32:00.116Z,463.52
2023-01-21T10:33:00.093Z,468.06
2023-01-21T10:34:00.100Z,468.06
2023-01-21T10:35:00.061Z,471.69
2023-01-21T10:36:00.059Z,477.07
2023-01-21T10:37:00.051Z,482.57
2023-01-21T10:38:00.019Z,481.53
2023-01-21T10:39:00.014Z,486.08
2023-01-21T10:39:59.989Z,491.43
2023-01-21T10:41:00.001Z,495.07
2023-01-21T10:41:59.988Z,499.13
2023-01-21T10:42:59.958Z,502.50
2023-01-21T10:43:59.962Z,505.54
2023-01-21T10:44:59.939Z,510.94
2023-01-21T10:46:00.038Z,512.50
2023-01-21T10:46:59.932Z,518.46
2023-01-21T10:47:59.913Z,526.62
2023-01-21T10:48:59.907Z,530.37
2023-01-21T10:49:59.886Z,529.11
2023-01-21T10:50:59.890Z,536.32
2023-01-21T10:51:59.860Z,538.48
2023-01-21T10:52:59.836Z,539.35
2023-01-21T10:53:59.835Z,543.29
2023-01-21T10:54:59.797Z,540.65
2023-01-21T10:55:59.821Z,547.28
2023-01-21T10:56:59.790Z,546.39
2023-01-21T10:57:59.827Z,552.25
2023-01-21T10:58:59.781Z,555.46
2023-01-21T10:59:59.775Z,557.78
2023-01-21T11:00:59.823Z,557.31
2023-01-21T11:01:59.761Z,559.17
2023-01-21T11:02:59.710Z,559.17
2023-01-21T11:03:59.745Z,564.84
2023-01-21T11:04:59.686Z,563.88
2023-01-21T11:05:59.667Z,568.19
2023-01-21T11:06:59.658Z,566.27
2023-01-21T11:07:59.661Z,565.31
2023-01-21T11:08:59.637Z,564.84
2023-01-21T11:09:59.617Z,563.88
2023-01-21T11:10:59.592Z,563.88
2023-01-21T11:11:59.606Z,562.46
2023-01-21T11:12:59.605Z,566.75
2023-01-21T11:13:59.583Z,564.84
2023-01-21T11:14:59.572Z,571.59
2023-01-21T11:15:59.612Z,564.84
2023-01-21T11:16:59.544Z,569.64
2023-01-21T11:17:59.557Z,568.19
2023-01-21T11:18:59.502Z,570.61
2023-01-21T11:19:59.519Z,573.06
2023-01-21T11:20:59.486Z,570.61
2023-01-21T11:21:59.474Z,573.06
2023-01-21T11:22:59.461Z,570.61
2023-01-21T11:23:59.466Z,572.57
2023-01-21T11:24:59.443Z,575.03
2023-01-21T11:25:59.411Z,577.01
2023-01-21T11:26:59.393Z,578.01
2023-01-21T11:27:59.391Z,573.55
2023-01-21T11:28:59.380Z,577.01
2023-01-21T11:29:59.368Z,573.06
2023-01-21T11:30:59.482Z,575.03
2023-01-21T11:31:59.556Z,572.08
2023-01-21T11:32:59.345Z,565.79
2023-01-21T11:33:59.316Z,569.64
2023-01-21T11:34:59.328Z,567.71
2023-01-21T11:35:59.319Z,569.64
2023-01-21T11:36:59.354Z,571.10
2023-01-21T11:37:59.278Z,574.04
2023-01-21T11:38:59.264Z,576.51
2023-01-21T11:39:59.378Z,577.51
2023-01-21T11:40:59.249Z,577.51
2023-01-21T11:41:59.198Z,580.01
2023-01-21T11:42:59.230Z,577.01
2023-01-21T11:43:59.186Z,583.04
2023-01-21T11:44:59.255Z,585.59
2023-01-21T11:45:59.211Z,588.68
2023-01-21T11:46:59.167Z,588.68
2023-01-21T11:47:59.116Z,594.43
2023-01-21T11:48:59.117Z,588.68
2023-01-21T11:49:59.188Z,596.02
2023-01-21T11:50:59.111Z,600.30
2023-01-21T11:51:59.113Z,601.38
2023-01-21T11:53:01.857Z,599.76
2023-01-21T11:53:59.056Z,600.30
2023-01-21T11:54:59.071Z,601.38
2023-01-21T11:55:59.048Z,597.62
2023-01-21T11:56:59.001Z,604.63
2023-01-21T11:57:59.024Z,605.73
2023-01-21T11:58:58.962Z,603.00
2023-01-21T11:59:59.081Z,603.00
2023-01-21T12:00:58.944Z,602.46
2023-01-21T12:01:58.990Z,610.70
2023-01-21T12:02:59.003Z,612.38
2023-01-21T12:03:58.914Z,611.82
2023-01-21T12:04:58.892Z,613.50
2023-01-21T12:05:58.931Z,620.90
2023-01-21T12:06:58.883Z,624.96
2023-01-21T12:07:58.872Z,626.71
2023-01-21T12:08:58.849Z,626.13
2023-01-21T12:09:58.845Z,633.24
2023-01-21T12:10:58.813Z,632.04
2023-01-21T12:11:58.831Z,638.07
2023-01-21T12:12:58.872Z,642.35
2023-01-21T12:13:58.788Z,645.45
2023-01-21T12:14:58.814Z,651.73
2023-01-21T12:15:59.253Z,650.47
2023-01-21T12:16:58.774Z,649.84
2023-01-21T12:17:58.784Z,656.21
2023-01-21T12:18:58.728Z,666.00
2023-01-21T12:19:58.721Z,678.83
2023-01-21T12:20:58.689Z,685.79
2023-01-21T12:21:58.696Z,694.33
2023-01-21T12:22:58.678Z,707.54
2023-01-21T12:23:58.691Z,715.10
2023-01-21T12:24:58.679Z,722.04
2023-01-21T12:25:58.644Z,729.12
2023-01-21T12:26:58.633Z,751.54
2023-01-21T12:27:58.615Z,758.78